Aérodrome :
LOGIN :

S'inscrire | Disclaimer

   EN    FR    IT 

 










Légende :    VFR   VFR Marginal   IFR   IFR Intensif   IFR Très Intensif
Visi : 
Plafond : 
>= 8 km
>= 3000ft
5 à 8 km
1000 à 3000 ft
1500m à 5 km
500 à 1000 ft
800 à 1500m
200 à 500 ft
< 800m
< 200 ft
Symboles :   Orages  Brouillard  Fortes neiges  Fortes précipitations  Vent > 20 kt
SIGMETs :   Divers  Orages  Givrage  Turbulence  Onde Orograph.  Cendres Volcan.







- Altitude de l'aérodrome : 502 ft
- Code IATA : ORK


EICK - Cork

DERNIER METAR :
  • 190830Z 22012KT 9999 BKN003 15/15 Q1020 TEMPO 2000

METARs EXPIRÉS :
  • 190800Z 21009KT 9999 BKN002 14/14 Q1020 TEMPO 2000
  • 190730Z 21008KT 2000 BR OVC002 14/14 Q1020 TEMPO 0800
  • 190700Z 19006KT 0300 R16/0800U R34/0650N -DZ FG OVC002 13/13 Q1020 TEMPO 0800
  • 190630Z 17004KT 0300 R16/0500N R34/0500N -DZ FG OVC002 13/12 Q1020 TEMPO 0800
  • 190600Z 17006KT 0300 R16/0500N R34/0500N -DZ FG OVC002 12/12 Q1020 TEMPO 0800

TAF AMD TAF EICK
Valide du 19 à 08h jusqu'au 20 à 06h UTC


190835Z 1908/2006 22012KT 9999 BKN005
TEMPO 1908/1912 2000 BR BKN002
PROB40
TEMPO 1908/1913 0500 FG BKN001
BECMG 1912/1915 22015G25KT BKN010
BECMG 1917/1920 22012KT 3000 BR BKN005
TEMPO 1918/1924 0800 -RA FG BKN002
BECMG 2003/2006 25010KT
Pas de NOTAMs connus pour ce terrain.



MET'MAP, la Météo Aéronautique d'un coup d'oeil ! - Copyright ORBIFLY Décembre 2007 - Disclaimer

ORBIFLY MET'MAP TEAM :

Programmation & Développement : Alexandra Zaïnal
Conception & Développement : Baudouin d'Aumeries
Co-Programmation & Développement : Marc-Olivier Méhu
Soutien technique & logistique : Manuel Goepfert

Contact : metmap@orbifly.com




SOURCES & CREDITS :

   NOAA